createdAt,value
2019-01-14T00:00:30.309Z,18.30
2019-01-14T00:03:02.314Z,18.30
2019-01-14T00:05:34.062Z,18.30
2019-01-14T00:08:05.753Z,18.30
2019-01-14T00:10:36.942Z,18.30
2019-01-14T00:13:08.718Z,18.30
2019-01-14T00:15:39.468Z,18.30
2019-01-14T00:18:11.297Z,18.30
2019-01-14T00:20:42.801Z,18.30
2019-01-14T00:23:14.397Z,18.30
2019-01-14T00:25:46.285Z,18.30
2019-01-14T00:28:17.872Z,18.20
2019-01-14T00:30:49.678Z,18.20
2019-01-14T00:33:20.631Z,18.20
2019-01-14T00:35:53.071Z,18.20
2019-01-14T00:38:25.266Z,18.20
2019-01-14T00:40:56.833Z,18.10
2019-01-14T00:43:28.594Z,18.10
2019-01-14T00:46:00.400Z,18.10
2019-01-14T00:48:32.067Z,18.10
2019-01-14T00:51:03.745Z,18.10
2019-01-14T00:53:34.471Z,18.10
2019-01-14T00:56:06.318Z,18.00
2019-01-14T00:58:37.841Z,18.10
2019-01-14T01:01:09.629Z,18.00
2019-01-14T01:03:41.341Z,18.00
2019-01-14T01:06:12.906Z,18.00
2019-01-14T01:08:44.625Z,18.00
2019-01-14T01:11:16.352Z,18.00
2019-01-14T01:13:48.066Z,17.90
2019-01-14T01:16:19.812Z,18.00
2019-01-14T01:18:52.049Z,17.90
2019-01-14T01:21:23.783Z,17.80
2019-01-14T01:23:54.466Z,17.80
2019-01-14T01:26:26.308Z,17.80
2019-01-14T01:28:58.323Z,17.80
2019-01-14T01:31:30.061Z,17.80
2019-01-14T01:34:02.363Z,17.80
2019-01-14T01:36:34.070Z,17.80
2019-01-14T01:39:08.721Z,17.80
2019-01-14T01:41:39.443Z,17.80
2019-01-14T01:44:11.074Z,17.80
2019-01-14T01:46:42.974Z,17.80
2019-01-14T01:49:14.786Z,17.80
2019-01-14T01:51:45.710Z,17.70
2019-01-14T01:54:16.460Z,17.80
2019-01-14T01:56:48.055Z,17.80
2019-01-14T01:59:19.802Z,17.80
2019-01-14T02:01:51.335Z,17.80
2019-01-14T02:04:23.069Z,17.70
2019-01-14T02:06:54.750Z,17.70
2019-01-14T02:09:26.377Z,17.70
2019-01-14T02:11:58.362Z,17.70
2019-01-14T02:14:30.062Z,17.70
2019-01-14T02:17:01.849Z,17.60
2019-01-14T02:19:33.758Z,17.60
2019-01-14T02:22:04.474Z,17.60
2019-01-14T02:24:36.310Z,17.60
2019-01-14T02:27:07.907Z,17.60
2019-01-14T02:29:39.770Z,17.60
2019-01-14T02:32:10.590Z,17.60
2019-01-14T02:37:12.454Z,17.60
2019-01-14T02:39:44.614Z,17.60
2019-01-14T02:42:16.367Z,17.60
2019-01-14T02:44:48.314Z,17.60
2019-01-14T02:47:19.909Z,17.70
2019-01-14T02:49:51.384Z,17.60
2019-01-14T02:52:23.062Z,17.60
2019-01-14T02:54:54.745Z,17.60
2019-01-14T02:57:25.452Z,17.60
2019-01-14T02:59:57.066Z,17.60
2019-01-14T03:02:28.780Z,17.60
2019-01-14T03:04:59.457Z,17.50
2019-01-14T03:07:31.289Z,17.50
2019-01-14T03:10:02.831Z,17.50
2019-01-14T03:12:34.786Z,17.50
2019-01-14T03:15:06.106Z,17.50
2019-01-14T03:17:37.753Z,17.50
2019-01-14T03:20:10.752Z,17.50
2019-01-14T03:22:41.754Z,17.50
2019-01-14T03:25:15.645Z,17.50
2019-01-14T03:27:47.741Z,17.50
2019-01-14T03:30:20.956Z,17.50
2019-01-14T03:32:52.768Z,17.40
2019-01-14T03:35:23.477Z,17.50
2019-01-14T03:37:55.310Z,17.50
2019-01-14T03:40:26.825Z,17.50
2019-01-14T03:42:58.407Z,17.50
2019-01-14T03:45:30.078Z,17.50
2019-01-14T03:48:01.770Z,17.50
2019-01-14T03:50:32.458Z,17.50
2019-01-14T03:53:04.305Z,17.50
2019-01-14T03:55:36.318Z,17.50
2019-01-14T03:58:07.856Z,17.40
2019-01-14T04:00:39.560Z,17.50
2019-01-14T04:03:11.771Z,17.50
2019-01-14T04:05:43.394Z,17.50
2019-01-14T04:08:15.279Z,17.50
2019-01-14T04:10:46.868Z,17.40
2019-01-14T04:13:18.594Z,17.40
2019-01-14T04:15:50.322Z,17.40
2019-01-14T04:18:21.925Z,17.40
2019-01-14T04:20:54.326Z,17.40
2019-01-14T04:23:25.806Z,17.40
2019-01-14T04:26:03.874Z,17.30
2019-01-14T04:28:35.727Z,17.30
2019-01-14T04:31:06.497Z,17.30
2019-01-14T04:33:38.304Z,17.30
2019-01-14T04:36:09.844Z,17.30
2019-01-14T04:38:41.668Z,17.30
2019-01-14T04:41:13.362Z,17.30
2019-01-14T04:43:45.348Z,17.30
2019-01-14T04:46:17.109Z,17.30
2019-01-14T04:48:48.787Z,17.20
2019-01-14T04:51:19.501Z,17.20
2019-01-14T04:53:51.381Z,17.20
2019-01-14T04:56:23.074Z,17.20
2019-01-14T04:58:54.782Z,17.20
2019-01-14T05:01:26.368Z,17.20
2019-01-14T05:03:58.763Z,17.20
2019-01-14T05:06:30.557Z,17.20
2019-01-14T05:09:02.411Z,17.20
2019-01-14T05:11:34.068Z,17.10
2019-01-14T05:14:05.787Z,17.10
2019-01-14T05:16:36.545Z,17.10
2019-01-14T05:19:08.343Z,17.10
2019-01-14T05:21:39.898Z,17.10
2019-01-14T05:24:11.777Z,17.10
2019-01-14T05:26:42.644Z,17.20
2019-01-14T05:29:14.621Z,17.20
2019-01-14T05:31:46.386Z,17.20
2019-01-14T05:34:18.071Z,17.20
2019-01-14T05:36:49.996Z,17.20
2019-01-14T05:39:21.795Z,17.20
2019-01-14T05:41:53.378Z,17.20
2019-01-14T05:44:25.077Z,17.20
2019-01-14T05:46:56.768Z,17.20
2019-01-14T05:49:27.475Z,17.20
2019-01-14T05:51:59.313Z,17.20
2019-01-14T05:54:31.300Z,17.20
2019-01-14T05:57:03.314Z,17.20
2019-01-14T05:59:34.924Z,17.20
2019-01-14T06:02:06.799Z,17.10
2019-01-14T06:04:37.508Z,17.10
2019-01-14T06:07:09.326Z,17.10
2019-01-14T06:09:41.000Z,17.10
2019-01-14T06:12:12.786Z,17.20
2019-01-14T06:14:43.605Z,17.20
2019-01-14T06:17:15.434Z,17.20
2019-01-14T06:19:47.817Z,17.20
2019-01-14T06:22:19.736Z,17.20
2019-01-14T06:24:51.355Z,17.10
2019-01-14T06:27:23.312Z,17.20
2019-01-14T06:29:54.853Z,17.20
2019-01-14T06:32:26.634Z,17.20
2019-01-14T06:34:58.351Z,17.20
2019-01-14T06:37:30.078Z,17.20
2019-01-14T06:40:01.793Z,17.20
2019-01-14T06:42:34.342Z,17.30
2019-01-14T06:45:06.814Z,17.20
2019-01-14T06:47:38.620Z,17.30
2019-01-14T06:50:13.426Z,17.30
2019-01-14T06:52:45.073Z,17.30
2019-01-14T06:55:16.839Z,17.30
2019-01-14T06:57:48.591Z,17.30
2019-01-14T07:00:29.001Z,17.30
2019-01-14T07:03:00.802Z,17.30
2019-01-14T07:05:32.627Z,17.30
2019-01-14T07:10:34.440Z,17.30
2019-01-14T07:13:06.317Z,17.30
2019-01-14T07:15:37.826Z,17.30
2019-01-14T07:18:09.618Z,17.30
2019-01-14T07:20:41.348Z,17.30
2019-01-14T07:23:13.318Z,17.30
2019-01-14T07:25:44.997Z,17.20
2019-01-14T07:28:16.770Z,17.20
2019-01-14T07:30:47.481Z,17.20
2019-01-14T07:33:19.599Z,17.20
2019-01-14T07:35:51.322Z,17.20
2019-01-14T07:38:23.316Z,17.20
2019-01-14T07:40:54.837Z,17.20
2019-01-14T07:43:26.610Z,17.20
2019-01-14T07:51:01.317Z,17.30
2019-01-14T07:53:32.864Z,17.20
2019-01-14T07:56:04.650Z,17.20
2019-01-14T07:58:35.632Z,17.10
2019-01-14T08:01:07.374Z,17.10
2019-01-14T08:03:39.069Z,17.10
2019-01-14T08:06:10.749Z,17.10
2019-01-14T08:08:41.453Z,17.10
2019-01-14T08:11:13.298Z,17.10
2019-01-14T08:13:45.002Z,17.10
2019-01-14T08:16:16.732Z,17.10
2019-01-14T08:18:47.512Z,17.10
2019-01-14T08:21:19.277Z,17.10
2019-01-14T08:23:50.804Z,17.10
2019-01-14T08:26:22.992Z,17.10
2019-01-14T08:28:54.774Z,17.10
2019-01-14T08:31:25.455Z,17.10
2019-01-14T08:33:57.296Z,17.10
2019-01-14T08:36:28.788Z,17.10
2019-01-14T08:39:00.590Z,17.10
2019-01-14T08:41:34.808Z,17.10
2019-01-14T08:44:09.356Z,17.00
2019-01-14T08:46:41.062Z,17.00
2019-01-14T08:49:12.782Z,17.00
2019-01-14T08:51:43.466Z,17.00
2019-01-14T08:54:15.305Z,17.10
2019-01-14T08:56:47.365Z,17.10
2019-01-14T08:59:19.030Z,17.10
2019-01-14T09:01:50.742Z,17.00
2019-01-14T09:04:22.707Z,17.00
2019-01-14T09:06:54.762Z,17.00
2019-01-14T09:09:25.461Z,17.00
2019-01-14T09:11:57.469Z,17.00
2019-01-14T09:14:29.036Z,17.00
2019-01-14T09:17:00.749Z,17.00
2019-01-14T09:19:31.481Z,17.10
2019-01-14T09:22:03.304Z,17.00
2019-01-14T09:24:34.824Z,17.00
2019-01-14T09:27:06.594Z,17.00
2019-01-14T09:32:10.337Z,17.00
2019-01-14T09:34:42.310Z,17.00
2019-01-14T09:37:13.858Z,17.00
2019-01-14T09:39:45.622Z,17.00
2019-01-14T09:42:17.366Z,17.00
2019-01-14T09:44:49.300Z,17.00
2019-01-14T09:47:20.829Z,17.00
2019-01-14T09:49:52.456Z,17.00
2019-01-14T09:52:24.310Z,17.00
2019-01-14T09:54:55.848Z,17.00
2019-01-14T09:57:27.611Z,17.00
2019-01-14T09:59:59.372Z,17.00
2019-01-14T10:02:31.050Z,17.00
2019-01-14T10:05:02.797Z,17.00
2019-01-14T10:07:34.437Z,17.00
2019-01-14T10:10:07.818Z,17.00
2019-01-14T10:12:39.350Z,17.00
2019-01-14T10:15:16.389Z,17.00
2019-01-14T10:17:51.997Z,17.00
2019-01-14T10:20:23.748Z,17.00
2019-01-14T10:22:54.524Z,17.00
2019-01-14T10:25:27.317Z,16.90
2019-01-14T10:27:59.048Z,16.90
2019-01-14T10:30:31.306Z,16.90
2019-01-14T10:33:02.981Z,16.90
2019-01-14T10:35:34.756Z,17.00
2019-01-14T10:38:05.476Z,17.00
2019-01-14T10:40:37.297Z,17.00
2019-01-14T10:43:08.856Z,17.00
2019-01-14T10:45:40.647Z,17.00
2019-01-14T10:48:12.368Z,17.00
2019-01-14T10:50:44.070Z,17.00
2019-01-14T10:53:15.734Z,17.00
2019-01-14T10:55:46.495Z,17.00
2019-01-14T10:58:18.301Z,17.00
2019-01-14T11:00:49.882Z,17.10
2019-01-14T11:03:21.720Z,17.10
2019-01-14T11:05:52.463Z,17.10
2019-01-14T11:08:24.377Z,17.10
2019-01-14T11:10:56.561Z,17.10
2019-01-14T11:13:28.297Z,17.10
2019-01-14T11:15:59.817Z,17.10
2019-01-14T11:18:31.404Z,17.10
2019-01-14T11:21:03.059Z,17.10
2019-01-14T11:23:34.748Z,17.00
2019-01-14T11:26:05.434Z,17.10
2019-01-14T11:28:37.298Z,17.00
2019-01-14T11:31:10.737Z,17.10
2019-01-14T11:33:42.441Z,17.10
2019-01-14T11:36:14.387Z,17.10
2019-01-14T11:38:55.733Z,17.10
2019-01-14T11:41:27.593Z,17.10
2019-01-14T11:43:59.417Z,17.10
2019-01-14T11:46:30.999Z,17.10
2019-01-14T11:49:02.696Z,17.10
2019-01-14T11:51:33.446Z,17.10
2019-01-14T11:54:05.293Z,17.20
2019-01-14T11:56:37.313Z,17.20
2019-01-14T11:59:09.033Z,17.20
2019-01-14T12:01:40.765Z,17.20
2019-01-14T12:04:11.442Z,17.20
2019-01-14T12:06:43.062Z,17.20
2019-01-14T12:09:14.774Z,17.20
2019-01-14T12:11:45.931Z,17.10
2019-01-14T12:14:17.724Z,17.20
2019-01-14T12:16:48.491Z,17.20
2019-01-14T12:19:20.293Z,17.10
2019-01-14T12:21:51.984Z,17.10
2019-01-14T12:24:23.738Z,17.10
2019-01-14T12:26:54.447Z,17.10
2019-01-14T12:29:26.305Z,17.10
2019-01-14T12:31:57.842Z,17.10
2019-01-14T12:34:29.578Z,17.10
2019-01-14T12:37:01.311Z,17.10
2019-01-14T12:39:32.829Z,17.10
2019-01-14T12:42:04.624Z,17.00
2019-01-14T12:44:54.624Z,17.00
2019-01-14T12:47:26.393Z,17.00
2019-01-14T12:49:58.057Z,16.90
2019-01-14T12:52:30.362Z,16.90
2019-01-14T12:55:02.279Z,16.80
2019-01-14T12:57:33.858Z,16.80
2019-01-14T13:00:07.757Z,16.70
2019-01-14T13:02:38.454Z,16.70
2019-01-14T13:05:10.381Z,16.70
2019-01-14T13:07:42.048Z,16.60
2019-01-14T13:10:14.304Z,16.60
2019-01-14T13:12:45.849Z,16.60
2019-01-14T13:15:24.263Z,16.50
2019-01-14T13:17:56.065Z,16.60
2019-01-14T13:20:27.769Z,16.50
2019-01-14T13:22:59.737Z,16.60
2019-01-14T13:25:31.344Z,16.50
2019-01-14T13:28:02.872Z,16.50
2019-01-14T13:30:34.376Z,16.50
2019-01-14T13:33:06.094Z,16.50
2019-01-14T13:35:38.301Z,16.50
2019-01-14T13:38:09.876Z,16.40
2019-01-14T13:40:41.744Z,16.40
2019-01-14T13:43:12.474Z,16.40
2019-01-14T13:45:44.310Z,16.40
2019-01-14T13:48:15.878Z,16.40
2019-01-14T13:50:47.754Z,16.40
2019-01-14T13:53:19.385Z,16.40
2019-01-14T13:55:51.336Z,16.40
2019-01-14T13:58:22.856Z,16.40
2019-01-14T14:00:54.626Z,16.40
2019-01-14T14:03:26.315Z,16.40
2019-01-14T14:05:58.017Z,16.40
2019-01-14T14:08:29.728Z,16.40
2019-01-14T14:11:00.479Z,16.30
2019-01-14T14:13:32.301Z,16.30
2019-01-14T14:16:03.871Z,16.20
2019-01-14T14:18:35.611Z,16.20
2019-01-14T14:21:07.702Z,16.20
2019-01-14T14:23:38.450Z,16.20
2019-01-14T14:26:10.341Z,16.20
2019-01-14T14:28:42.057Z,16.20
2019-01-14T14:31:13.744Z,16.10
2019-01-14T14:33:44.483Z,16.20
2019-01-14T14:36:16.754Z,16.20
2019-01-14T14:38:47.663Z,16.10
2019-01-14T14:41:18.572Z,16.10
2019-01-14T14:43:50.316Z,16.10
2019-01-14T14:46:22.298Z,16.00
2019-01-14T14:49:01.761Z,16.00
2019-01-14T14:51:33.755Z,16.00
2019-01-14T14:54:11.629Z,16.00
2019-01-14T14:56:48.883Z,16.00
2019-01-14T14:59:20.807Z,16.00
2019-01-14T15:01:53.820Z,16.00
2019-01-14T15:04:25.604Z,16.10
2019-01-14T15:06:57.788Z,16.30
2019-01-14T15:09:31.697Z,16.40
2019-01-14T15:12:04.066Z,16.50
2019-01-14T15:14:37.331Z,16.60
2019-01-14T15:17:09.404Z,16.70
2019-01-14T15:19:42.028Z,16.80
2019-01-14T15:22:14.312Z,16.90
2019-01-14T15:24:45.913Z,16.90
2019-01-14T15:27:17.741Z,17.00
2019-01-14T15:29:48.464Z,17.00
2019-01-14T15:32:20.395Z,17.00
2019-01-14T15:34:52.304Z,17.00
2019-01-14T15:37:25.760Z,17.10
2019-01-14T15:40:03.011Z,17.00
2019-01-14T15:42:30.342Z,17.00
2019-01-14T15:45:02.057Z,17.00
2019-01-14T15:47:33.782Z,17.00
2019-01-14T15:50:06.270Z,16.90
2019-01-14T15:52:38.301Z,16.90
2019-01-14T15:55:29.789Z,16.80
2019-01-14T15:58:00.591Z,16.80
2019-01-14T16:00:32.370Z,16.80
2019-01-14T16:03:04.062Z,16.80
2019-01-14T16:05:35.829Z,16.80
2019-01-14T16:08:07.601Z,16.80
2019-01-14T16:10:39.802Z,16.80
2019-01-14T16:13:11.759Z,16.80
2019-01-14T16:15:43.641Z,16.90
2019-01-14T16:18:15.435Z,17.00
2019-01-14T16:20:47.653Z,17.00
2019-01-14T16:23:19.818Z,17.10
2019-01-14T16:25:51.870Z,17.10
2019-01-14T16:28:24.142Z,17.10
2019-01-14T16:30:55.801Z,17.10
2019-01-14T16:33:27.765Z,17.10
2019-01-14T16:35:58.556Z,17.10
2019-01-14T16:38:30.486Z,17.10
2019-01-14T16:41:02.620Z,17.00
2019-01-14T16:43:34.370Z,17.00
2019-01-14T16:46:06.874Z,17.00
2019-01-14T16:48:38.818Z,17.00
2019-01-14T16:51:10.883Z,17.00
2019-01-14T16:53:42.806Z,17.00
2019-01-14T16:56:15.267Z,17.00
2019-01-14T16:58:47.482Z,17.00
2019-01-14T17:04:01.318Z,16.90
2019-01-14T17:06:33.057Z,16.90
2019-01-14T17:09:08.446Z,16.80
2019-01-14T17:11:40.301Z,16.80
2019-01-14T17:14:12.336Z,16.70
2019-01-14T17:16:44.474Z,16.80
2019-01-14T17:19:16.301Z,16.70
2019-01-14T17:21:48.017Z,16.80
2019-01-14T17:24:20.353Z,16.80
2019-01-14T17:26:52.302Z,16.80
2019-01-14T17:29:23.836Z,16.80
2019-01-14T17:31:55.613Z,16.80
2019-01-14T17:34:28.309Z,16.70
2019-01-14T17:37:00.028Z,16.70
2019-01-14T17:39:31.752Z,16.70
2019-01-14T17:42:03.598Z,16.70
2019-01-14T17:44:35.608Z,16.70
2019-01-14T17:47:07.309Z,16.80
2019-01-14T17:49:39.458Z,16.80
2019-01-14T17:52:11.067Z,16.90
2019-01-14T17:54:42.762Z,16.90
2019-01-14T17:57:13.454Z,16.90
2019-01-14T17:59:45.403Z,17.00
2019-01-14T18:02:17.067Z,17.10
2019-01-14T18:04:48.745Z,17.10
2019-01-14T18:07:21.552Z,17.10
2019-01-14T18:09:52.905Z,17.10
2019-01-14T18:12:24.780Z,17.20
2019-01-14T18:14:55.542Z,17.10
2019-01-14T18:17:27.257Z,17.20
2019-01-14T18:19:58.825Z,17.20
2019-01-14T18:22:30.750Z,17.20
2019-01-14T18:25:01.465Z,17.20
2019-01-14T18:27:33.438Z,17.10
2019-01-14T18:30:07.309Z,17.10
2019-01-14T18:32:39.754Z,17.10
2019-01-14T18:35:10.483Z,17.10
2019-01-14T18:37:42.313Z,17.10
2019-01-14T18:40:15.762Z,17.00
2019-01-14T18:42:48.055Z,17.00
2019-01-14T18:45:21.753Z,17.00
2019-01-14T18:47:52.623Z,17.00
2019-01-14T18:50:25.414Z,16.90
2019-01-14T18:52:57.421Z,16.90
2019-01-14T18:55:29.886Z,16.80
2019-01-14T18:58:03.759Z,16.90
2019-01-14T19:00:35.000Z,16.80
2019-01-14T19:03:06.757Z,16.80
2019-01-14T19:05:37.950Z,16.80
2019-01-14T19:08:10.312Z,16.70
2019-01-14T19:10:42.064Z,16.70
2019-01-14T19:13:13.751Z,16.70
2019-01-14T19:15:45.776Z,16.70
2019-01-14T19:18:17.614Z,16.70
2019-01-14T19:20:49.597Z,16.70
2019-01-14T19:25:52.750Z,16.70
2019-01-14T19:28:25.988Z,16.70
2019-01-14T19:30:57.839Z,16.70
2019-01-14T19:33:29.621Z,16.80
2019-01-14T19:36:01.378Z,16.90
2019-01-14T19:38:33.759Z,16.90
2019-01-14T19:41:05.435Z,16.90
2019-01-14T19:43:37.303Z,16.90
2019-01-14T19:46:09.293Z,16.90
2019-01-14T19:48:41.298Z,17.00
2019-01-14T19:51:13.361Z,17.10
2019-01-14T19:53:45.306Z,17.20
2019-01-14T19:56:18.103Z,17.20
2019-01-14T19:58:49.788Z,17.20
2019-01-14T20:01:21.390Z,17.20
2019-01-14T20:03:53.328Z,17.20
2019-01-14T20:06:25.300Z,17.20
2019-01-14T20:09:04.390Z,17.20
2019-01-14T20:11:36.269Z,17.30
2019-01-14T20:14:15.930Z,17.30
2019-01-14T20:16:47.860Z,17.20
2019-01-14T20:19:20.805Z,17.20
2019-01-14T20:22:04.812Z,17.20
2019-01-14T20:24:38.356Z,17.10
2019-01-14T20:27:12.963Z,17.10
2019-01-14T20:29:44.746Z,17.00
2019-01-14T20:32:17.792Z,17.00
2019-01-14T20:34:49.736Z,16.90
2019-01-14T20:37:23.997Z,16.90
2019-01-14T20:39:55.780Z,16.80
2019-01-14T20:42:27.935Z,16.80
2019-01-14T20:45:00.341Z,16.70
2019-01-14T20:47:32.011Z,16.70
2019-01-14T20:50:03.754Z,16.70
2019-01-14T20:52:34.492Z,16.60
2019-01-14T20:55:06.364Z,16.60
2019-01-14T20:57:38.011Z,16.60
2019-01-14T21:00:19.709Z,16.60
2019-01-14T21:02:50.599Z,16.60
2019-01-14T21:05:22.836Z,16.60
2019-01-14T21:07:54.362Z,16.60
2019-01-14T21:10:26.056Z,16.60
2019-01-14T21:12:57.796Z,16.60
2019-01-14T21:15:29.745Z,16.60
2019-01-14T21:18:00.504Z,16.60
2019-01-14T21:20:32.410Z,16.60
2019-01-14T21:23:04.054Z,16.60
2019-01-14T21:25:35.743Z,16.60
2019-01-14T21:28:06.495Z,16.60
2019-01-14T21:30:38.778Z,16.50
2019-01-14T21:33:09.546Z,16.50
2019-01-14T21:35:41.292Z,16.50
2019-01-14T21:38:14.322Z,16.50
2019-01-14T21:40:46.123Z,16.60
2019-01-14T21:43:17.773Z,16.60
2019-01-14T21:45:49.572Z,16.60
2019-01-14T21:48:21.597Z,16.60
2019-01-14T21:50:53.329Z,16.60
2019-01-14T21:53:25.053Z,16.60
2019-01-14T21:55:57.311Z,16.60
2019-01-14T21:58:28.970Z,16.60
2019-01-14T22:01:00.770Z,16.50
2019-01-14T22:03:32.600Z,16.50
2019-01-14T22:06:04.329Z,16.50
2019-01-14T22:08:35.997Z,16.50
2019-01-14T22:11:07.891Z,16.50
2019-01-14T22:13:39.801Z,16.50
2019-01-14T22:16:18.319Z,16.50
2019-01-14T22:18:50.065Z,16.50
2019-01-14T22:21:21.779Z,16.50
2019-01-14T22:23:55.671Z,16.50
2019-01-14T22:26:26.618Z,16.50
2019-01-14T22:33:59.836Z,16.60
2019-01-14T22:36:39.303Z,16.50
2019-01-14T22:39:11.072Z,16.50
2019-01-14T22:41:46.107Z,16.40
2019-01-14T22:44:17.793Z,16.50
2019-01-14T22:46:49.766Z,16.50
2019-01-14T22:49:20.451Z,16.40
2019-01-14T22:51:52.298Z,16.40
2019-01-14T22:54:24.332Z,16.40
2019-01-14T22:56:55.857Z,16.40
2019-01-14T22:59:27.370Z,16.40
2019-01-14T23:01:59.294Z,16.40
2019-01-14T23:04:30.808Z,16.40
2019-01-14T23:07:02.587Z,16.50
2019-01-14T23:09:34.308Z,16.50
2019-01-14T23:12:06.058Z,16.50
2019-01-14T23:14:37.744Z,16.60
2019-01-14T23:17:08.437Z,16.60
2019-01-14T23:19:40.307Z,16.60
2019-01-14T23:22:11.867Z,16.60
2019-01-14T23:24:44.261Z,16.50
2019-01-14T23:27:16.302Z,16.50
2019-01-14T23:29:48.801Z,16.50
2019-01-14T23:32:20.569Z,16.50
2019-01-14T23:34:52.306Z,16.50
2019-01-14T23:37:24.339Z,16.40
2019-01-14T23:39:56.384Z,16.50
2019-01-14T23:42:28.302Z,16.40
2019-01-14T23:45:00.311Z,16.40
2019-01-14T23:47:31.870Z,16.40
2019-01-14T23:50:03.989Z,16.40
2019-01-14T23:52:35.726Z,16.40
2019-01-14T23:55:06.616Z,16.40
2019-01-14T23:57:38.373Z,16.50
